Pradera Real, Puerto Rico
Current Conditions -  °F | °C
As of 12:50 PM on Saturday 20 Dec 2014 (Local Time) from TJBQ Reporting Station
Scattered Clouds Scattered Clouds  
Wind Chill: 82°   Ceiling: Unl
Heat Index: 86°   Visibility: 10mi
Dew Point: 70°   Wind: 16mph
Humidity: 66%   Direction: 80°E
Pressure: 30.03"   Gusts: NA
Location:  18.4951°N, 67.0273°W
Report Text: TJBQ 201650Z 08014KT 10SM SCT025 28/21 A3003 RMK RWY08 ATIS M
Loading
Personal Weather Stations






























Interactive Weather Map New forecast layout! Learn more

10-Day Weather Forecast

Advertisements
Track Severe Weather on mobile